sensor_id;sensor_type;location;lat;lon;timestamp;pressure;altitude;pressure_sealevel;temperature
8227;BMP180;4154;48.810;9.012;2023-04-23T00:00:52;96460.00;;;13.20
8227;BMP180;4154;48.810;9.012;2023-04-23T00:03:22;96454.00;;;13.20
8227;BMP180;4154;48.810;9.012;2023-04-23T00:05:51;96449.00;;;13.20
8227;BMP180;4154;48.810;9.012;2023-04-23T00:08:18;96458.00;;;13.20
8227;BMP180;4154;48.810;9.012;2023-04-23T00:10:44;96461.00;;;13.30
8227;BMP180;4154;48.810;9.012;2023-04-23T00:13:10;96454.00;;;13.20
8227;BMP180;4154;48.810;9.012;2023-04-23T00:15:36;96461.00;;;13.20
8227;BMP180;4154;48.810;9.012;2023-04-23T00:18:02;96455.00;;;13.20
8227;BMP180;4154;48.810;9.012;2023-04-23T00:20:28;96460.00;;;13.20
8227;BMP180;4154;48.810;9.012;2023-04-23T00:22:54;96456.00;;;13.20
8227;BMP180;4154;48.810;9.012;2023-04-23T00:25:20;96472.00;;;13.20
8227;BMP180;4154;48.810;9.012;2023-04-23T00:27:46;96468.00;;;13.30
8227;BMP180;4154;48.810;9.012;2023-04-23T00:30:12;96461.00;;;13.20
8227;BMP180;4154;48.810;9.012;2023-04-23T00:32:38;96465.00;;;13.20
8227;BMP180;4154;48.810;9.012;2023-04-23T00:35:04;96464.00;;;13.20
8227;BMP180;4154;48.810;9.012;2023-04-23T00:37:30;96480.00;;;13.10
8227;BMP180;4154;48.810;9.012;2023-04-23T00:39:56;96474.00;;;13.10
8227;BMP180;4154;48.810;9.012;2023-04-23T00:42:22;96480.00;;;13.10
8227;BMP180;4154;48.810;9.012;2023-04-23T00:44:50;96491.00;;;13.20
8227;BMP180;4154;48.810;9.012;2023-04-23T00:47:16;96487.00;;;13.10
8227;BMP180;4154;48.810;9.012;2023-04-23T00:49:42;96492.00;;;13.20
8227;BMP180;4154;48.810;9.012;2023-04-23T00:52:08;96491.00;;;13.20
8227;BMP180;4154;48.810;9.012;2023-04-23T00:54:34;96493.00;;;13.20
8227;BMP180;4154;48.810;9.012;2023-04-23T00:57:00;96497.00;;;13.20
8227;BMP180;4154;48.810;9.012;2023-04-23T00:59:28;96499.00;;;13.10
8227;BMP180;4154;48.810;9.012;2023-04-23T01:01:55;96503.00;;;13.10
8227;BMP180;4154;48.810;9.012;2023-04-23T01:04:23;96502.00;;;13.10
8227;BMP180;4154;48.810;9.012;2023-04-23T01:06:50;96498.00;;;13.10
8227;BMP180;4154;48.810;9.012;2023-04-23T01:09:16;96503.00;;;13.10
8227;BMP180;4154;48.810;9.012;2023-04-23T01:11:43;96494.00;;;13.10
8227;BMP180;4154;48.810;9.012;2023-04-23T01:14:10;96494.00;;;13.00
8227;BMP180;4154;48.810;9.012;2023-04-23T01:16:36;96505.00;;;13.00
8227;BMP180;4154;48.810;9.012;2023-04-23T01:19:05;96507.00;;;13.00
8227;BMP180;4154;48.810;9.012;2023-04-23T01:21:34;96513.00;;;12.90
8227;BMP180;4154;48.810;9.012;2023-04-23T01:24:04;96509.00;;;12.90
8227;BMP180;4154;48.810;9.012;2023-04-23T01:26:31;96513.00;;;12.80
8227;BMP180;4154;48.810;9.012;2023-04-23T01:28:58;96521.00;;;12.80
8227;BMP180;4154;48.810;9.012;2023-04-23T01:31:25;96509.00;;;12.80
8227;BMP180;4154;48.810;9.012;2023-04-23T01:33:52;96517.00;;;12.70
8227;BMP180;4154;48.810;9.012;2023-04-23T01:36:18;96519.00;;;12.70
8227;BMP180;4154;48.810;9.012;2023-04-23T01:38:45;96519.00;;;12.70
8227;BMP180;4154;48.810;9.012;2023-04-23T01:41:11;96518.00;;;12.70
8227;BMP180;4154;48.810;9.012;2023-04-23T01:43:37;96511.00;;;12.70
8227;BMP180;4154;48.810;9.012;2023-04-23T01:46:04;96518.00;;;12.70
8227;BMP180;4154;48.810;9.012;2023-04-23T01:48:30;96519.00;;;12.70
8227;BMP180;4154;48.810;9.012;2023-04-23T01:50:55;96518.00;;;12.70
8227;BMP180;4154;48.810;9.012;2023-04-23T01:53:21;96525.00;;;12.60
8227;BMP180;4154;48.810;9.012;2023-04-23T01:55:48;96513.00;;;12.70
8227;BMP180;4154;48.810;9.012;2023-04-23T01:58:16;96523.00;;;12.70
8227;BMP180;4154;48.810;9.012;2023-04-23T02:00:42;96513.00;;;12.60
8227;BMP180;4154;48.810;9.012;2023-04-23T02:03:08;96523.00;;;12.60
8227;BMP180;4154;48.810;9.012;2023-04-23T02:05:35;96513.00;;;12.60
8227;BMP180;4154;48.810;9.012;2023-04-23T02:08:02;96515.00;;;12.60
8227;BMP180;4154;48.810;9.012;2023-04-23T02:10:27;96526.00;;;12.70
8227;BMP180;4154;48.810;9.012;2023-04-23T02:12:57;96524.00;;;12.60
8227;BMP180;4154;48.810;9.012;2023-04-23T02:15:24;96539.00;;;12.60
8227;BMP180;4154;48.810;9.012;2023-04-23T02:17:49;96542.00;;;12.60
8227;BMP180;4154;48.810;9.012;2023-04-23T02:20:17;96542.00;;;12.60
8227;BMP180;4154;48.810;9.012;2023-04-23T02:22:44;96549.00;;;12.50
8227;BMP180;4154;48.810;9.012;2023-04-23T02:25:11;96545.00;;;12.50
8227;BMP180;4154;48.810;9.012;2023-04-23T02:27:40;96541.00;;;12.60
8227;BMP180;4154;48.810;9.012;2023-04-23T02:30:07;96544.00;;;12.50
8227;BMP180;4154;48.810;9.012;2023-04-23T02:32:35;96535.00;;;12.50
8227;BMP180;4154;48.810;9.012;2023-04-23T02:35:01;96532.00;;;12.50
8227;BMP180;4154;48.810;9.012;2023-04-23T02:37:27;96536.00;;;12.50
8227;BMP180;4154;48.810;9.012;2023-04-23T02:39:53;96541.00;;;12.50
8227;BMP180;4154;48.810;9.012;2023-04-23T02:42:19;96539.00;;;12.40
8227;BMP180;4154;48.810;9.012;2023-04-23T02:44:45;96536.00;;;12.40
8227;BMP180;4154;48.810;9.012;2023-04-23T02:47:11;96525.00;;;12.40
8227;BMP180;4154;48.810;9.012;2023-04-23T02:49:37;96529.00;;;12.30
8227;BMP180;4154;48.810;9.012;2023-04-23T02:52:03;96519.00;;;12.30
8227;BMP180;4154;48.810;9.012;2023-04-23T02:54:29;96522.00;;;12.30
8227;BMP180;4154;48.810;9.012;2023-04-23T02:56:57;96511.00;;;12.30
8227;BMP180;4154;48.810;9.012;2023-04-23T02:59:23;96525.00;;;12.20
8227;BMP180;4154;48.810;9.012;2023-04-23T03:01:49;96521.00;;;12.30
8227;BMP180;4154;48.810;9.012;2023-04-23T03:04:17;96521.00;;;12.30
8227;BMP180;4154;48.810;9.012;2023-04-23T03:06:43;96526.00;;;12.30
8227;BMP180;4154;48.810;9.012;2023-04-23T03:09:09;96531.00;;;12.30
8227;BMP180;4154;48.810;9.012;2023-04-23T03:11:35;96524.00;;;12.20
8227;BMP180;4154;48.810;9.012;2023-04-23T03:14:01;96524.00;;;12.20
8227;BMP180;4154;48.810;9.012;2023-04-23T03:16:29;96514.00;;;12.20
8227;BMP180;4154;48.810;9.012;2023-04-23T03:18:56;96521.00;;;12.20
8227;BMP180;4154;48.810;9.012;2023-04-23T03:21:22;96524.00;;;12.20
8227;BMP180;4154;48.810;9.012;2023-04-23T03:23:48;96515.00;;;12.20
8227;BMP180;4154;48.810;9.012;2023-04-23T03:26:14;96517.00;;;12.20
8227;BMP180;4154;48.810;9.012;2023-04-23T03:28:40;96515.00;;;12.10
8227;BMP180;4154;48.810;9.012;2023-04-23T03:31:06;96514.00;;;12.10
8227;BMP180;4154;48.810;9.012;2023-04-23T03:33:32;96523.00;;;12.10
8227;BMP180;4154;48.810;9.012;2023-04-23T03:35:58;96521.00;;;12.10
8227;BMP180;4154;48.810;9.012;2023-04-23T03:38:23;96512.00;;;12.00
8227;BMP180;4154;48.810;9.012;2023-04-23T03:40:49;96520.00;;;12.00
8227;BMP180;4154;48.810;9.012;2023-04-23T03:43:14;96512.00;;;12.00
8227;BMP180;4154;48.810;9.012;2023-04-23T03:45:40;96519.00;;;12.00
8227;BMP180;4154;48.810;9.012;2023-04-23T03:48:06;96521.00;;;12.00
8227;BMP180;4154;48.810;9.012;2023-04-23T03:50:32;96518.00;;;12.00
8227;BMP180;4154;48.810;9.012;2023-04-23T03:53:03;96525.00;;;12.00
8227;BMP180;4154;48.810;9.012;2023-04-23T03:55:29;96520.00;;;12.00
8227;BMP180;4154;48.810;9.012;2023-04-23T03:57:55;96520.00;;;11.90
8227;BMP180;4154;48.810;9.012;2023-04-23T04:00:21;96533.00;;;11.90
8227;BMP180;4154;48.810;9.012;2023-04-23T04:02:46;96526.00;;;11.80
8227;BMP180;4154;48.810;9.012;2023-04-23T04:05:12;96513.00;;;11.80
8227;BMP180;4154;48.810;9.012;2023-04-23T04:07:38;96529.00;;;11.90
8227;BMP180;4154;48.810;9.012;2023-04-23T04:10:06;96524.00;;;11.80
8227;BMP180;4154;48.810;9.012;2023-04-23T04:12:32;96517.00;;;11.80
8227;BMP180;4154;48.810;9.012;2023-04-23T04:14:58;96512.00;;;11.90
8227;BMP180;4154;48.810;9.012;2023-04-23T04:17:24;96512.00;;;11.80
8227;BMP180;4154;48.810;9.012;2023-04-23T04:19:50;96515.00;;;11.80
8227;BMP180;4154;48.810;9.012;2023-04-23T04:22:16;96523.00;;;11.80
8227;BMP180;4154;48.810;9.012;2023-04-23T04:24:42;96521.00;;;11.80
8227;BMP180;4154;48.810;9.012;2023-04-23T04:27:11;96527.00;;;11.80
8227;BMP180;4154;48.810;9.012;2023-04-23T04:29:37;96527.00;;;11.80
8227;BMP180;4154;48.810;9.012;2023-04-23T04:32:07;96530.00;;;11.80
8227;BMP180;4154;48.810;9.012;2023-04-23T04:34:34;96533.00;;;11.80
8227;BMP180;4154;48.810;9.012;2023-04-23T04:37:01;96531.00;;;11.80
8227;BMP180;4154;48.810;9.012;2023-04-23T04:39:27;96533.00;;;11.70
8227;BMP180;4154;48.810;9.012;2023-04-23T04:41:52;96529.00;;;11.80
8227;BMP180;4154;48.810;9.012;2023-04-23T04:44:19;96520.00;;;11.80
8227;BMP180;4154;48.810;9.012;2023-04-23T04:46:46;96536.00;;;11.80
8227;BMP180;4154;48.810;9.012;2023-04-23T04:49:12;96529.00;;;11.80
8227;BMP180;4154;48.810;9.012;2023-04-23T04:51:40;96532.00;;;11.70
8227;BMP180;4154;48.810;9.012;2023-04-23T04:54:06;96530.00;;;11.70
8227;BMP180;4154;48.810;9.012;2023-04-23T04:56:35;96520.00;;;11.70
8227;BMP180;4154;48.810;9.012;2023-04-23T04:59:02;96520.00;;;11.70
8227;BMP180;4154;48.810;9.012;2023-04-23T05:01:28;96521.00;;;11.70
8227;BMP180;4154;48.810;9.012;2023-04-23T05:03:55;96523.00;;;11.70
8227;BMP180;4154;48.810;9.012;2023-04-23T05:06:22;96520.00;;;11.70
8227;BMP180;4154;48.810;9.012;2023-04-23T05:08:48;96518.00;;;11.70
8227;BMP180;4154;48.810;9.012;2023-04-23T05:11:18;96514.00;;;11.70
8227;BMP180;4154;48.810;9.012;2023-04-23T05:13:46;96518.00;;;11.70
8227;BMP180;4154;48.810;9.012;2023-04-23T05:16:12;96522.00;;;11.70
8227;BMP180;4154;48.810;9.012;2023-04-23T05:18:39;96534.00;;;11.70
8227;BMP180;4154;48.810;9.012;2023-04-23T05:21:06;96528.00;;;11.80
8227;BMP180;4154;48.810;9.012;2023-04-23T05:23:33;96522.00;;;11.80
8227;BMP180;4154;48.810;9.012;2023-04-23T05:25:59;96521.00;;;11.80
8227;BMP180;4154;48.810;9.012;2023-04-23T05:28:28;96528.00;;;11.80
8227;BMP180;4154;48.810;9.012;2023-04-23T05:30:55;96518.00;;;11.80
8227;BMP180;4154;48.810;9.012;2023-04-23T05:33:21;96524.00;;;11.90
8227;BMP180;4154;48.810;9.012;2023-04-23T05:35:46;96517.00;;;11.90
8227;BMP180;4154;48.810;9.012;2023-04-23T05:38:12;96524.00;;;12.00
8227;BMP180;4154;48.810;9.012;2023-04-23T05:40:38;96534.00;;;12.00
8227;BMP180;4154;48.810;9.012;2023-04-23T05:43:04;96536.00;;;12.00
8227;BMP180;4154;48.810;9.012;2023-04-23T05:45:29;96531.00;;;12.00
8227;BMP180;4154;48.810;9.012;2023-04-23T05:47:55;96538.00;;;12.10
8227;BMP180;4154;48.810;9.012;2023-04-23T05:50:21;96535.00;;;12.00
8227;BMP180;4154;48.810;9.012;2023-04-23T05:52:47;96541.00;;;12.00
8227;BMP180;4154;48.810;9.012;2023-04-23T05:55:13;96539.00;;;12.00
8227;BMP180;4154;48.810;9.012;2023-04-23T05:57:42;96540.00;;;12.10
8227;BMP180;4154;48.810;9.012;2023-04-23T06:00:09;96546.00;;;12.10
8227;BMP180;4154;48.810;9.012;2023-04-23T06:02:35;96539.00;;;12.10
8227;BMP180;4154;48.810;9.012;2023-04-23T06:05:01;96539.00;;;12.10
8227;BMP180;4154;48.810;9.012;2023-04-23T06:07:26;96534.00;;;12.20
8227;BMP180;4154;48.810;9.012;2023-04-23T06:09:52;96539.00;;;12.20
8227;BMP180;4154;48.810;9.012;2023-04-23T06:12:18;96534.00;;;12.20
8227;BMP180;4154;48.810;9.012;2023-04-23T06:14:44;96535.00;;;12.30
8227;BMP180;4154;48.810;9.012;2023-04-23T06:17:10;96538.00;;;12.30
8227;BMP180;4154;48.810;9.012;2023-04-23T06:19:36;96526.00;;;12.40
8227;BMP180;4154;48.810;9.012;2023-04-23T06:22:01;96534.00;;;12.40
8227;BMP180;4154;48.810;9.012;2023-04-23T06:24:28;96542.00;;;12.40
8227;BMP180;4154;48.810;9.012;2023-04-23T06:26:54;96532.00;;;12.40
8227;BMP180;4154;48.810;9.012;2023-04-23T06:29:20;96534.00;;;12.40
8227;BMP180;4154;48.810;9.012;2023-04-23T06:31:46;96528.00;;;12.40
8227;BMP180;4154;48.810;9.012;2023-04-23T06:34:12;96538.00;;;12.50
8227;BMP180;4154;48.810;9.012;2023-04-23T06:36:37;96534.00;;;12.50
8227;BMP180;4154;48.810;9.012;2023-04-23T06:39:03;96533.00;;;12.50
8227;BMP180;4154;48.810;9.012;2023-04-23T06:41:29;96529.00;;;12.60
8227;BMP180;4154;48.810;9.012;2023-04-23T06:43:55;96525.00;;;12.60
8227;BMP180;4154;48.810;9.012;2023-04-23T06:46:21;96521.00;;;12.60
8227;BMP180;4154;48.810;9.012;2023-04-23T06:48:47;96519.00;;;12.60
8227;BMP180;4154;48.810;9.012;2023-04-23T06:51:13;96529.00;;;12.70
8227;BMP180;4154;48.810;9.012;2023-04-23T06:53:40;96514.00;;;12.70
8227;BMP180;4154;48.810;9.012;2023-04-23T06:56:06;96510.00;;;12.80
8227;BMP180;4154;48.810;9.012;2023-04-23T06:58:32;96506.00;;;12.80
8227;BMP180;4154;48.810;9.012;2023-04-23T07:00:58;96504.00;;;12.80
8227;BMP180;4154;48.810;9.012;2023-04-23T07:03:26;96487.00;;;12.80
8227;BMP180;4154;48.810;9.012;2023-04-23T07:05:53;96506.00;;;12.90
8227;BMP180;4154;48.810;9.012;2023-04-23T07:08:18;96492.00;;;13.00
8227;BMP180;4154;48.810;9.012;2023-04-23T07:10:46;96492.00;;;13.20
8227;BMP180;4154;48.810;9.012;2023-04-23T07:13:12;96483.00;;;13.20
8227;BMP180;4154;48.810;9.012;2023-04-23T07:15:38;96483.00;;;13.20
8227;BMP180;4154;48.810;9.012;2023-04-23T07:18:04;96496.00;;;13.20
8227;BMP180;4154;48.810;9.012;2023-04-23T07:20:31;96497.00;;;13.30
8227;BMP180;4154;48.810;9.012;2023-04-23T07:22:58;96495.00;;;13.40
8227;BMP180;4154;48.810;9.012;2023-04-23T07:25:24;96495.00;;;13.40
8227;BMP180;4154;48.810;9.012;2023-04-23T07:27:51;96495.00;;;13.50
8227;BMP180;4154;48.810;9.012;2023-04-23T07:30:19;96490.00;;;13.50
8227;BMP180;4154;48.810;9.012;2023-04-23T07:32:45;96490.00;;;13.60
8227;BMP180;4154;48.810;9.012;2023-04-23T07:35:11;96484.00;;;13.60
8227;BMP180;4154;48.810;9.012;2023-04-23T07:37:37;96486.00;;;13.70
8227;BMP180;4154;48.810;9.012;2023-04-23T07:40:04;96483.00;;;13.60
8227;BMP180;4154;48.810;9.012;2023-04-23T07:42:30;96487.00;;;13.70
8227;BMP180;4154;48.810;9.012;2023-04-23T07:44:56;96471.00;;;13.80
8227;BMP180;4154;48.810;9.012;2023-04-23T07:47:22;96472.00;;;13.90
8227;BMP180;4154;48.810;9.012;2023-04-23T07:49:48;96475.00;;;13.80
8227;BMP180;4154;48.810;9.012;2023-04-23T07:52:15;96469.00;;;13.80
8227;BMP180;4154;48.810;9.012;2023-04-23T07:54:41;96475.00;;;13.90
8227;BMP180;4154;48.810;9.012;2023-04-23T07:57:07;96470.00;;;13.90
8227;BMP180;4154;48.810;9.012;2023-04-23T07:59:33;96475.00;;;13.90
8227;BMP180;4154;48.810;9.012;2023-04-23T08:01:59;96471.00;;;13.90
8227;BMP180;4154;48.810;9.012;2023-04-23T08:04:25;96471.00;;;13.90
8227;BMP180;4154;48.810;9.012;2023-04-23T08:06:51;96461.00;;;13.90
8227;BMP180;4154;48.810;9.012;2023-04-23T08:09:17;96463.00;;;14.00
8227;BMP180;4154;48.810;9.012;2023-04-23T08:11:43;96460.00;;;14.10
8227;BMP180;4154;48.810;9.012;2023-04-23T08:14:08;96451.00;;;14.20
8227;BMP180;4154;48.810;9.012;2023-04-23T08:16:34;96445.00;;;14.30
8227;BMP180;4154;48.810;9.012;2023-04-23T08:19:01;96449.00;;;14.30
8227;BMP180;4154;48.810;9.012;2023-04-23T08:21:26;96446.00;;;14.30
8227;BMP180;4154;48.810;9.012;2023-04-23T08:23:54;96454.00;;;14.30
8227;BMP180;4154;48.810;9.012;2023-04-23T08:26:20;96453.00;;;14.30
8227;BMP180;4154;48.810;9.012;2023-04-23T08:28:45;96450.00;;;14.30
8227;BMP180;4154;48.810;9.012;2023-04-23T08:31:11;96439.00;;;14.30
8227;BMP180;4154;48.810;9.012;2023-04-23T08:33:37;96441.00;;;14.30
8227;BMP180;4154;48.810;9.012;2023-04-23T08:36:03;96438.00;;;14.40
8227;BMP180;4154;48.810;9.012;2023-04-23T08:38:29;96439.00;;;14.50
8227;BMP180;4154;48.810;9.012;2023-04-23T08:40:58;96443.00;;;14.50
8227;BMP180;4154;48.810;9.012;2023-04-23T08:43:36;96441.00;;;14.70
8227;BMP180;4154;48.810;9.012;2023-04-23T08:46:03;96428.00;;;14.80
8227;BMP180;4154;48.810;9.012;2023-04-23T08:48:29;96439.00;;;14.90
8227;BMP180;4154;48.810;9.012;2023-04-23T08:50:58;96431.00;;;15.00
8227;BMP180;4154;48.810;9.012;2023-04-23T08:53:26;96424.00;;;15.00
8227;BMP180;4154;48.810;9.012;2023-04-23T08:55:58;96422.00;;;15.00
8227;BMP180;4154;48.810;9.012;2023-04-23T08:58:24;96415.00;;;15.00
8227;BMP180;4154;48.810;9.012;2023-04-23T09:00:53;96423.00;;;15.10
8227;BMP180;4154;48.810;9.012;2023-04-23T09:03:21;96427.00;;;15.10
8227;BMP180;4154;48.810;9.012;2023-04-23T09:05:48;96426.00;;;15.30
8227;BMP180;4154;48.810;9.012;2023-04-23T09:08:16;96421.00;;;15.40
8227;BMP180;4154;48.810;9.012;2023-04-23T09:10:43;96405.00;;;15.60
8227;BMP180;4154;48.810;9.012;2023-04-23T09:13:12;96419.00;;;15.70
8227;BMP180;4154;48.810;9.012;2023-04-23T09:15:39;96413.00;;;15.70
8227;BMP180;4154;48.810;9.012;2023-04-23T09:18:08;96411.00;;;15.80
8227;BMP180;4154;48.810;9.012;2023-04-23T09:20:35;96412.00;;;15.90
8227;BMP180;4154;48.810;9.012;2023-04-23T09:23:06;96398.00;;;15.90
8227;BMP180;4154;48.810;9.012;2023-04-23T09:25:33;96407.00;;;16.00
8227;BMP180;4154;48.810;9.012;2023-04-23T09:27:59;96401.00;;;15.90
8227;BMP180;4154;48.810;9.012;2023-04-23T09:30:28;96388.00;;;16.00
8227;BMP180;4154;48.810;9.012;2023-04-23T09:32:53;96386.00;;;16.10
8227;BMP180;4154;48.810;9.012;2023-04-23T09:35:20;96393.00;;;16.20
8227;BMP180;4154;48.810;9.012;2023-04-23T09:37:49;96387.00;;;16.30
8227;BMP180;4154;48.810;9.012;2023-04-23T09:40:17;96385.00;;;16.40
8227;BMP180;4154;48.810;9.012;2023-04-23T09:42:48;96373.00;;;16.40
8227;BMP180;4154;48.810;9.012;2023-04-23T09:45:15;96372.00;;;16.50
8227;BMP180;4154;48.810;9.012;2023-04-23T09:47:52;96371.00;;;16.50
8227;BMP180;4154;48.810;9.012;2023-04-23T09:50:30;96362.00;;;16.50
8227;BMP180;4154;48.810;9.012;2023-04-23T09:52:56;96369.00;;;16.40
8227;BMP180;4154;48.810;9.012;2023-04-23T09:55:33;96363.00;;;16.50
8227;BMP180;4154;48.810;9.012;2023-04-23T09:58:03;96357.00;;;16.60
8227;BMP180;4154;48.810;9.012;2023-04-23T10:00:37;96355.00;;;16.70
8227;BMP180;4154;48.810;9.012;2023-04-23T10:03:04;96363.00;;;16.70
8227;BMP180;4154;48.810;9.012;2023-04-23T10:05:31;96352.00;;;16.80
8227;BMP180;4154;48.810;9.012;2023-04-23T10:07:56;96351.00;;;16.90
8227;BMP180;4154;48.810;9.012;2023-04-23T10:10:24;96347.00;;;17.00
8227;BMP180;4154;48.810;9.012;2023-04-23T10:12:52;96348.00;;;17.10
8227;BMP180;4154;48.810;9.012;2023-04-23T10:15:19;96347.00;;;17.20
8227;BMP180;4154;48.810;9.012;2023-04-23T10:17:46;96339.00;;;17.20
8227;BMP180;4154;48.810;9.012;2023-04-23T10:20:15;96329.00;;;17.20
8227;BMP180;4154;48.810;9.012;2023-04-23T10:22:43;96343.00;;;17.20
8227;BMP180;4154;48.810;9.012;2023-04-23T10:25:11;96341.00;;;17.40
8227;BMP180;4154;48.810;9.012;2023-04-23T10:27:42;96341.00;;;17.50
8227;BMP180;4154;48.810;9.012;2023-04-23T10:30:10;96330.00;;;17.50
8227;BMP180;4154;48.810;9.012;2023-04-23T10:32:37;96318.00;;;17.50
8227;BMP180;4154;48.810;9.012;2023-04-23T10:35:07;96330.00;;;17.50
8227;BMP180;4154;48.810;9.012;2023-04-23T10:37:35;96328.00;;;17.50
8227;BMP180;4154;48.810;9.012;2023-04-23T10:40:11;96324.00;;;17.60
8227;BMP180;4154;48.810;9.012;2023-04-23T10:42:39;96330.00;;;17.60
8227;BMP180;4154;48.810;9.012;2023-04-23T10:45:17;96322.00;;;17.60
8227;BMP180;4154;48.810;9.012;2023-04-23T10:47:44;96312.00;;;17.60
8227;BMP180;4154;48.810;9.012;2023-04-23T10:50:40;96307.00;;;17.60
8227;BMP180;4154;48.810;9.012;2023-04-23T10:53:18;96306.00;;;17.70
8227;BMP180;4154;48.810;9.012;2023-04-23T10:55:47;96298.00;;;17.70
8227;BMP180;4154;48.810;9.012;2023-04-23T10:58:13;96307.00;;;17.80
8227;BMP180;4154;48.810;9.012;2023-04-23T11:00:43;96312.00;;;17.90
8227;BMP180;4154;48.810;9.012;2023-04-23T11:03:38;96304.00;;;17.90
8227;BMP180;4154;48.810;9.012;2023-04-23T11:06:05;96302.00;;;17.90
8227;BMP180;4154;48.810;9.012;2023-04-23T11:08:34;96294.00;;;17.90
8227;BMP180;4154;48.810;9.012;2023-04-23T11:11:05;96289.00;;;18.00
8227;BMP180;4154;48.810;9.012;2023-04-23T11:13:31;96295.00;;;18.00
8227;BMP180;4154;48.810;9.012;2023-04-23T11:16:22;96292.00;;;18.10
8227;BMP180;4154;48.810;9.012;2023-04-23T11:19:08;96287.00;;;18.30
8227;BMP180;4154;48.810;9.012;2023-04-23T11:22:03;96286.00;;;18.50
8227;BMP180;4154;48.810;9.012;2023-04-23T11:24:41;96285.00;;;18.50
8227;BMP180;4154;48.810;9.012;2023-04-23T11:29:37;96274.00;;;18.40
8227;BMP180;4154;48.810;9.012;2023-04-23T11:32:04;96271.00;;;18.50
8227;BMP180;4154;48.810;9.012;2023-04-23T11:34:46;96271.00;;;18.60
8227;BMP180;4154;48.810;9.012;2023-04-23T11:37:15;96274.00;;;18.70
8227;BMP180;4154;48.810;9.012;2023-04-23T11:39:44;96273.00;;;18.70
8227;BMP180;4154;48.810;9.012;2023-04-23T11:42:14;96270.00;;;18.70
8227;BMP180;4154;48.810;9.012;2023-04-23T11:44:43;96258.00;;;18.70
8227;BMP180;4154;48.810;9.012;2023-04-23T11:47:12;96247.00;;;18.60
8227;BMP180;4154;48.810;9.012;2023-04-23T11:49:40;96248.00;;;18.70
8227;BMP180;4154;48.810;9.012;2023-04-23T11:52:07;96249.00;;;18.80
8227;BMP180;4154;48.810;9.012;2023-04-23T11:54:33;96248.00;;;18.80
8227;BMP180;4154;48.810;9.012;2023-04-23T11:57:01;96246.00;;;18.70
8227;BMP180;4154;48.810;9.012;2023-04-23T11:59:30;96236.00;;;18.60
8227;BMP180;4154;48.810;9.012;2023-04-23T12:01:58;96232.00;;;18.60
8227;BMP180;4154;48.810;9.012;2023-04-23T12:04:28;96233.00;;;18.70
8227;BMP180;4154;48.810;9.012;2023-04-23T12:06:56;96222.00;;;18.70
8227;BMP180;4154;48.810;9.012;2023-04-23T12:09:25;96208.00;;;18.80
8227;BMP180;4154;48.810;9.012;2023-04-23T12:11:52;96223.00;;;18.60
8227;BMP180;4154;48.810;9.012;2023-04-23T12:14:24;96207.00;;;18.60
8227;BMP180;4154;48.810;9.012;2023-04-23T12:16:53;96219.00;;;18.70
8227;BMP180;4154;48.810;9.012;2023-04-23T12:19:26;96210.00;;;18.90
8227;BMP180;4154;48.810;9.012;2023-04-23T12:22:00;96204.00;;;19.00
8227;BMP180;4154;48.810;9.012;2023-04-23T12:24:29;96197.00;;;19.10
8227;BMP180;4154;48.810;9.012;2023-04-23T12:26:58;96199.00;;;19.20
8227;BMP180;4154;48.810;9.012;2023-04-23T12:29:25;96202.00;;;19.40
8227;BMP180;4154;48.810;9.012;2023-04-23T12:31:58;96197.00;;;19.50
8227;BMP180;4154;48.810;9.012;2023-04-23T12:34:25;96192.00;;;19.60
8227;BMP180;4154;48.810;9.012;2023-04-23T12:36:54;96192.00;;;19.80
8227;BMP180;4154;48.810;9.012;2023-04-23T12:41:54;96178.00;;;20.00
8227;BMP180;4154;48.810;9.012;2023-04-23T12:44:21;96168.00;;;20.20
8227;BMP180;4154;48.810;9.012;2023-04-23T12:46:58;96166.00;;;20.30
8227;BMP180;4154;48.810;9.012;2023-04-23T12:49:27;96162.00;;;20.20
8227;BMP180;4154;48.810;9.012;2023-04-23T12:51:54;96157.00;;;20.10
8227;BMP180;4154;48.810;9.012;2023-04-23T12:54:24;96156.00;;;20.00
8227;BMP180;4154;48.810;9.012;2023-04-23T12:56:50;96159.00;;;19.90
8227;BMP180;4154;48.810;9.012;2023-04-23T12:59:16;96155.00;;;19.80
8227;BMP180;4154;48.810;9.012;2023-04-23T13:01:42;96143.00;;;19.70
8227;BMP180;4154;48.810;9.012;2023-04-23T13:04:08;96150.00;;;19.70
8227;BMP180;4154;48.810;9.012;2023-04-23T13:06:34;96136.00;;;19.70
8227;BMP180;4154;48.810;9.012;2023-04-23T13:09:00;96137.00;;;19.90
8227;BMP180;4154;48.810;9.012;2023-04-23T13:11:28;96135.00;;;20.00
8227;BMP180;4154;48.810;9.012;2023-04-23T13:13:53;96123.00;;;20.00
8227;BMP180;4154;48.810;9.012;2023-04-23T13:16:20;96123.00;;;20.20
8227;BMP180;4154;48.810;9.012;2023-04-23T13:18:46;96113.00;;;20.30
8227;BMP180;4154;48.810;9.012;2023-04-23T13:21:11;96112.00;;;20.50
8227;BMP180;4154;48.810;9.012;2023-04-23T13:23:44;96101.00;;;20.50
8227;BMP180;4154;48.810;9.012;2023-04-23T13:26:10;96100.00;;;20.40
8227;BMP180;4154;48.810;9.012;2023-04-23T13:28:36;96098.00;;;20.30
8227;BMP180;4154;48.810;9.012;2023-04-23T13:31:02;96092.00;;;20.10
8227;BMP180;4154;48.810;9.012;2023-04-23T13:33:29;96086.00;;;20.10
8227;BMP180;4154;48.810;9.012;2023-04-23T13:35:56;96088.00;;;20.10
8227;BMP180;4154;48.810;9.012;2023-04-23T13:38:24;96078.00;;;20.00
8227;BMP180;4154;48.810;9.012;2023-04-23T13:40:51;96069.00;;;20.20
8227;BMP180;4154;48.810;9.012;2023-04-23T13:43:17;96067.00;;;20.30
8227;BMP180;4154;48.810;9.012;2023-04-23T13:45:43;96062.00;;;20.40
8227;BMP180;4154;48.810;9.012;2023-04-23T13:48:09;96064.00;;;20.50
8227;BMP180;4154;48.810;9.012;2023-04-23T13:50:35;96041.00;;;20.60
8227;BMP180;4154;48.810;9.012;2023-04-23T13:53:01;96046.00;;;20.60
8227;BMP180;4154;48.810;9.012;2023-04-23T13:55:26;96036.00;;;20.60
8227;BMP180;4154;48.810;9.012;2023-04-23T13:57:52;96036.00;;;20.90
8227;BMP180;4154;48.810;9.012;2023-04-23T14:00:23;96038.00;;;21.10
8227;BMP180;4154;48.810;9.012;2023-04-23T14:02:49;96033.00;;;21.00
8227;BMP180;4154;48.810;9.012;2023-04-23T14:05:15;96024.00;;;21.10
8227;BMP180;4154;48.810;9.012;2023-04-23T14:07:42;96021.00;;;21.10
8227;BMP180;4154;48.810;9.012;2023-04-23T14:10:09;96020.00;;;21.10
8227;BMP180;4154;48.810;9.012;2023-04-23T14:12:37;96028.00;;;21.00
8227;BMP180;4154;48.810;9.012;2023-04-23T14:15:05;96013.00;;;20.90
8227;BMP180;4154;48.810;9.012;2023-04-23T14:17:31;96022.00;;;20.90
8227;BMP180;4154;48.810;9.012;2023-04-23T14:19:57;96025.00;;;20.90
8227;BMP180;4154;48.810;9.012;2023-04-23T14:22:24;96000.00;;;20.90
8227;BMP180;4154;48.810;9.012;2023-04-23T14:24:55;95995.00;;;20.90
8227;BMP180;4154;48.810;9.012;2023-04-23T14:27:22;96008.00;;;21.00
8227;BMP180;4154;48.810;9.012;2023-04-23T14:29:57;95992.00;;;21.10
8227;BMP180;4154;48.810;9.012;2023-04-23T14:32:26;95997.00;;;21.10
8227;BMP180;4154;48.810;9.012;2023-04-23T14:34:52;95993.00;;;21.10
8227;BMP180;4154;48.810;9.012;2023-04-23T14:37:18;95988.00;;;20.90
8227;BMP180;4154;48.810;9.012;2023-04-23T14:39:44;95984.00;;;20.80